Hovedside
METAR-TAF:

METAR-TAF

Lufthavner :

Roskilde, Danmark

Roskilde lufthavn

breddegrad: 55-35N, lengdegrad: 012-08E, høyde over havet: 44 m

Gjeldene værobservasjon

Denne rapporten ble laget for 32 minutter siden, klokken 18:50 UTC
Vind 7 kt fra Sørøst
Temperatur 18°C
Luftfuktighet 73%
Trykk 1020 hPa
Sikt 10 km eller mer

METAR: EKRK 271850Z AUTO 14007KT 9999NDV NCD 18/13 Q1020

Tid: 21:22 (19:22 UTC)

Varsel

Denne rapporten ble laget for 2 timer og 1 minutter siden, klokken 17:21 UTC
Varsel gyldig fra 27. klokken 18 UTC til 28. klokken 03 UTC
Vind 8 kt fra Sør-sørøst
Sikt 10 km eller mer
ingen skyer under 1500 m og ingen bygeskyer

TAF: EKRK 271721Z 2718/2803 15008KT CAVOK

Værobservasjoner og værvarsel for over 4000 flyplasser (METAR- og TAF-rapporter).

Tilgjengelige stasjoner er representert av de røde og gule prikkene på kartet.

Hold musepekeren over prikken for å se navnet på stasjonen.

Klikk så for å se værobservasjoner og -varsler.

For å forandre kartet kan du klikke på den grønne knappen med svart kryss for å zoome inn, på den grønne knappen med strek for å zoome ut, eller på de grønne pilene for å se tilstøtende kart.


METAR-TAF: